Loves Park, IL (61111)

1:39 PM CDT on September 01, 2015 (GMT -0500)
Brookview School Area | | Change Station
CLOSE
Current Station
Personal Weather Station
Location: Rockford, IL
Elevation: 879 ft
Nearby Weather Stations

Elev 879 ft 42.29 °N, 89.01 °W | Updated 4 minutes ago

Partly Cloudy
Partly Cloudy
87.9 °F
Feels Like 97 °F
N
2.0
Wind Variable Wind from WSW
Gusts 13.0 mph

Today
High -- | Low -- °F
--% Chance of Precip.
Yesterday
High -- | Low -- °F
Precip. -- in
6:21 AM 7:30 PM
Waning Gibbous, 87% visible
Pressure 30.01 in
Visibility 10.0 miles
Clouds Few 3000 ft
Heat Index 97 °F
Dew Point 75 °F
Humidity 65%
Rainfall 0.00 in
Snow Depth Not available.
UV 8 out of 12
Pollen 11.00 out of 12
Air Quality Not available.
Flu Activity Not available.
METAR KRFD 011754Z 22011KT 10SM FEW030 31/22 A3003 RMK AO2 SLP163 T03110217 10311 20206 58007
Pressure 30.01 in
Visibility 10.0 miles
Clouds Few 3000 ft
Heat Index 97 °F
Dew Point 75 °F
Humidity 65%
Rainfall 0.00 in
Snow Depth Not available.
UV 8 out of 12
Pollen 11.00 out of 12
Air Quality Not available.
Flu Activity Not available.
METAR KRFD 011754Z 22011KT 10SM FEW030 31/22 A3003 RMK AO2 SLP163 T03110217 10311 20206 58007

10-Day Weather Forecast

×

Almanac

Astronomy

Sep. 01, 2015 Rise Set
Actual Time
Civil Twilight
Nautical Twilight
Astronomical Twilight
Moon
Length of Visible Light
Length of Day
Tomorrow will be .
, % of the Moon is Illuminated

Today's Extremes

State Highs State Lows

Community

WunderPhotos

Upload Photos

1,851,593 photos uploaded!

WunderBlogs® & News

Nearby

Air Quality

  Air Quality AQ Index Pollutant
Not available.

Snow Depth

Station Depth Elevation

Earthquake Activity

City Distance Mag. Time & Date
Minimum magnitude displayed is 2.5.

Coastal Water Temperatures

Place Temperature

Stations

Nearby Weather Stations

Station Location Temp. Windchill Dew Point Humidity Wind Precip. Elev Updated Type